Terminal Aerodrome Forecast
Issued by NWS

Home | Current Version | Previous Version | Text Only | Print | Product List | Glossary On
Versions: 1 2 3 4 5 6 7 8 9 10 11 12 13 14
000
FTUS44 KBMX 011700
TAFTCL
TAF
KTCL 011737Z 0118/0218 14007KT P6SM OVC010
      TEMPO 0119/0123 OVC020
     FM020300 14003KT P6SM VCSH OVC007
     FM020900 VRB03KT 3SM -RA BR OVC004=

USA.gov is the U.S. government's official web portal to all federal, state and local government web resources and services.